sensor_id;sensor_type;location;lat;lon;timestamp;P1;durP1;ratioP1;P2;durP2;ratioP2
49440;SDS011;35317;51.978;6.296;2023-02-01T00:02:47;20.88;;;4.05;;
49440;SDS011;35317;51.978;6.296;2023-02-01T00:07:48;29.40;;;3.88;;
49440;SDS011;35317;51.978;6.296;2023-02-01T00:12:49;23.10;;;5.15;;
49440;SDS011;35317;51.978;6.296;2023-02-01T00:17:53;28.35;;;4.25;;
49440;SDS011;35317;51.978;6.296;2023-02-01T00:22:55;25.45;;;3.45;;
49440;SDS011;35317;51.978;6.296;2023-02-01T00:27:55;31.80;;;4.13;;
49440;SDS011;35317;51.978;6.296;2023-02-01T00:32:58;23.55;;;3.38;;
49440;SDS011;35317;51.978;6.296;2023-02-01T00:37:59;18.45;;;2.88;;
49440;SDS011;35317;51.978;6.296;2023-02-01T00:43:00;26.85;;;4.13;;
49440;SDS011;35317;51.978;6.296;2023-02-01T00:48:01;25.85;;;3.22;;
49440;SDS011;35317;51.978;6.296;2023-02-01T00:53:01;21.45;;;3.22;;
49440;SDS011;35317;51.978;6.296;2023-02-01T00:58:02;16.63;;;3.40;;
49440;SDS011;35317;51.978;6.296;2023-02-01T01:03:05;15.10;;;2.60;;
49440;SDS011;35317;51.978;6.296;2023-02-01T01:08:17;20.73;;;3.85;;
49440;SDS011;35317;51.978;6.296;2023-02-01T01:13:18;15.52;;;2.58;;
49440;SDS011;35317;51.978;6.296;2023-02-01T01:18:19;21.48;;;3.53;;
49440;SDS011;35317;51.978;6.296;2023-02-01T01:23:20;19.08;;;2.90;;
49440;SDS011;35317;51.978;6.296;2023-02-01T01:28:20;21.70;;;3.10;;
49440;SDS011;35317;51.978;6.296;2023-02-01T01:33:21;22.83;;;4.05;;
49440;SDS011;35317;51.978;6.296;2023-02-01T01:38:22;13.00;;;2.53;;
49440;SDS011;35317;51.978;6.296;2023-02-01T01:43:22;21.30;;;3.83;;
49440;SDS011;35317;51.978;6.296;2023-02-01T01:48:27;28.63;;;3.80;;
49440;SDS011;35317;51.978;6.296;2023-02-01T01:53:32;23.00;;;3.97;;
49440;SDS011;35317;51.978;6.296;2023-02-01T01:58:37;22.55;;;3.45;;
49440;SDS011;35317;51.978;6.296;2023-02-01T02:03:42;21.73;;;3.25;;
49440;SDS011;35317;51.978;6.296;2023-02-01T02:08:44;25.02;;;3.10;;
49440;SDS011;35317;51.978;6.296;2023-02-01T02:13:46;23.10;;;4.25;;
49440;SDS011;35317;51.978;6.296;2023-02-01T02:35:52;25.05;;;3.05;;
49440;SDS011;35317;51.978;6.296;2023-02-01T02:47:05;19.05;;;2.92;;
49440;SDS011;35317;51.978;6.296;2023-02-01T02:52:25;22.48;;;3.55;;
49440;SDS011;35317;51.978;6.296;2023-02-01T02:57:46;24.10;;;3.60;;
49440;SDS011;35317;51.978;6.296;2023-02-01T03:03:05;33.17;;;4.05;;
49440;SDS011;35317;51.978;6.296;2023-02-01T03:08:26;22.27;;;3.08;;
49440;SDS011;35317;51.978;6.296;2023-02-01T03:35:11;35.35;;;4.40;;
49440;SDS011;35317;51.978;6.296;2023-02-01T03:40:12;23.10;;;3.20;;
49440;SDS011;35317;51.978;6.296;2023-02-01T03:45:19;26.95;;;3.53;;
49440;SDS011;35317;51.978;6.296;2023-02-01T03:50:31;24.83;;;3.67;;
49440;SDS011;35317;51.978;6.296;2023-02-01T03:55:36;28.63;;;3.00;;
49440;SDS011;35317;51.978;6.296;2023-02-01T04:00:38;21.50;;;3.47;;
49440;SDS011;35317;51.978;6.296;2023-02-01T04:05:39;27.67;;;3.78;;
49440;SDS011;35317;51.978;6.296;2023-02-01T04:10:40;28.08;;;3.72;;
49440;SDS011;35317;51.978;6.296;2023-02-01T04:15:41;31.13;;;3.92;;
49440;SDS011;35317;51.978;6.296;2023-02-01T04:20:42;30.55;;;3.95;;
49440;SDS011;35317;51.978;6.296;2023-02-01T04:25:43;24.52;;;3.88;;
49440;SDS011;35317;51.978;6.296;2023-02-01T04:30:45;29.95;;;4.38;;
49440;SDS011;35317;51.978;6.296;2023-02-01T04:35:46;22.98;;;3.67;;
49440;SDS011;35317;51.978;6.296;2023-02-01T04:40:48;28.65;;;4.20;;
49440;SDS011;35317;51.978;6.296;2023-02-01T04:45:49;28.55;;;4.18;;
49440;SDS011;35317;51.978;6.296;2023-02-01T04:50:51;29.45;;;3.83;;
49440;SDS011;35317;51.978;6.296;2023-02-01T04:55:51;23.58;;;3.28;;
49440;SDS011;35317;51.978;6.296;2023-02-01T05:00:52;25.77;;;3.58;;
49440;SDS011;35317;51.978;6.296;2023-02-01T05:05:53;30.20;;;4.10;;
49440;SDS011;35317;51.978;6.296;2023-02-01T05:10:54;21.98;;;3.58;;
49440;SDS011;35317;51.978;6.296;2023-02-01T05:15:55;32.22;;;3.90;;
49440;SDS011;35317;51.978;6.296;2023-02-01T05:20:55;20.08;;;4.05;;
49440;SDS011;35317;51.978;6.296;2023-02-01T05:26:00;20.83;;;4.45;;
49440;SDS011;35317;51.978;6.296;2023-02-01T05:31:01;28.77;;;4.50;;
49440;SDS011;35317;51.978;6.296;2023-02-01T05:36:10;27.83;;;6.70;;
49440;SDS011;35317;51.978;6.296;2023-02-01T05:41:11;31.10;;;5.35;;
49440;SDS011;35317;51.978;6.296;2023-02-01T05:46:12;21.33;;;3.60;;
49440;SDS011;35317;51.978;6.296;2023-02-01T05:51:13;28.95;;;3.65;;
49440;SDS011;35317;51.978;6.296;2023-02-01T05:56:14;25.92;;;4.40;;
49440;SDS011;35317;51.978;6.296;2023-02-01T06:01:14;20.17;;;3.58;;
49440;SDS011;35317;51.978;6.296;2023-02-01T06:06:15;16.92;;;2.63;;
49440;SDS011;35317;51.978;6.296;2023-02-01T06:11:16;34.05;;;3.55;;
49440;SDS011;35317;51.978;6.296;2023-02-01T06:16:17;23.08;;;3.78;;
49440;SDS011;35317;51.978;6.296;2023-02-01T06:21:17;31.30;;;4.05;;
49440;SDS011;35317;51.978;6.296;2023-02-01T06:26:23;33.65;;;3.65;;
49440;SDS011;35317;51.978;6.296;2023-02-01T06:31:24;25.63;;;3.53;;
49440;SDS011;35317;51.978;6.296;2023-02-01T06:36:25;20.90;;;3.47;;
49440;SDS011;35317;51.978;6.296;2023-02-01T06:41:26;28.95;;;4.18;;
49440;SDS011;35317;51.978;6.296;2023-02-01T06:46:27;22.63;;;3.92;;
49440;SDS011;35317;51.978;6.296;2023-02-01T06:51:28;18.80;;;3.25;;
49440;SDS011;35317;51.978;6.296;2023-02-01T06:56:29;28.30;;;4.03;;
49440;SDS011;35317;51.978;6.296;2023-02-01T07:01:31;19.23;;;2.72;;
49440;SDS011;35317;51.978;6.296;2023-02-01T07:06:32;20.65;;;3.38;;
49440;SDS011;35317;51.978;6.296;2023-02-01T07:11:33;16.05;;;2.78;;
49440;SDS011;35317;51.978;6.296;2023-02-01T07:16:34;17.33;;;2.67;;
49440;SDS011;35317;51.978;6.296;2023-02-01T07:21:35;21.02;;;3.90;;
49440;SDS011;35317;51.978;6.296;2023-02-01T07:26:36;17.80;;;4.05;;
49440;SDS011;35317;51.978;6.296;2023-02-01T07:31:36;20.88;;;3.80;;
49440;SDS011;35317;51.978;6.296;2023-02-01T07:36:37;23.17;;;3.97;;
49440;SDS011;35317;51.978;6.296;2023-02-01T07:41:38;22.80;;;3.75;;
49440;SDS011;35317;51.978;6.296;2023-02-01T07:46:39;26.17;;;4.85;;
49440;SDS011;35317;51.978;6.296;2023-02-01T07:51:40;21.50;;;3.55;;
49440;SDS011;35317;51.978;6.296;2023-02-01T07:56:40;18.20;;;3.22;;
49440;SDS011;35317;51.978;6.296;2023-02-01T08:01:41;26.67;;;3.28;;
49440;SDS011;35317;51.978;6.296;2023-02-01T08:06:42;27.90;;;5.05;;
49440;SDS011;35317;51.978;6.296;2023-02-01T08:11:43;22.58;;;2.92;;
49440;SDS011;35317;51.978;6.296;2023-02-01T08:16:44;27.52;;;4.00;;
49440;SDS011;35317;51.978;6.296;2023-02-01T08:21:45;24.00;;;4.38;;
49440;SDS011;35317;51.978;6.296;2023-02-01T08:26:48;27.63;;;4.47;;
49440;SDS011;35317;51.978;6.296;2023-02-01T08:31:49;26.55;;;3.95;;
49440;SDS011;35317;51.978;6.296;2023-02-01T08:36:51;23.33;;;4.28;;
49440;SDS011;35317;51.978;6.296;2023-02-01T08:41:57;18.77;;;3.05;;
49440;SDS011;35317;51.978;6.296;2023-02-01T08:47:16;22.08;;;3.47;;
49440;SDS011;35317;51.978;6.296;2023-02-01T08:52:17;27.63;;;5.18;;
49440;SDS011;35317;51.978;6.296;2023-02-01T08:57:17;23.70;;;4.18;;
49440;SDS011;35317;51.978;6.296;2023-02-01T09:02:18;24.23;;;3.42;;
49440;SDS011;35317;51.978;6.296;2023-02-01T09:07:20;29.05;;;4.93;;
49440;SDS011;35317;51.978;6.296;2023-02-01T09:12:22;23.98;;;3.75;;
49440;SDS011;35317;51.978;6.296;2023-02-01T09:17:23;23.60;;;2.70;;
49440;SDS011;35317;51.978;6.296;2023-02-01T09:22:23;17.85;;;3.53;;
49440;SDS011;35317;51.978;6.296;2023-02-01T09:27:24;25.30;;;3.78;;
49440;SDS011;35317;51.978;6.296;2023-02-01T09:32:25;20.27;;;3.05;;
49440;SDS011;35317;51.978;6.296;2023-02-01T09:37:26;26.95;;;4.35;;
49440;SDS011;35317;51.978;6.296;2023-02-01T09:42:42;20.10;;;2.92;;
49440;SDS011;35317;51.978;6.296;2023-02-01T09:48:20;14.55;;;3.33;;
49440;SDS011;35317;51.978;6.296;2023-02-01T09:53:29;32.70;;;5.30;;
49440;SDS011;35317;51.978;6.296;2023-02-01T09:58:43;25.75;;;3.50;;
49440;SDS011;35317;51.978;6.296;2023-02-01T10:03:47;24.63;;;4.40;;
49440;SDS011;35317;51.978;6.296;2023-02-01T10:08:59;21.20;;;3.30;;
49440;SDS011;35317;51.978;6.296;2023-02-01T10:31:06;24.08;;;3.80;;
49440;SDS011;35317;51.978;6.296;2023-02-01T10:36:16;17.47;;;3.47;;
49440;SDS011;35317;51.978;6.296;2023-02-01T10:41:48;22.08;;;3.65;;
49440;SDS011;35317;51.978;6.296;2023-02-01T10:46:50;20.42;;;3.15;;
49440;SDS011;35317;51.978;6.296;2023-02-01T10:51:52;25.40;;;4.00;;
49440;SDS011;35317;51.978;6.296;2023-02-01T10:56:58;30.33;;;4.13;;
49440;SDS011;35317;51.978;6.296;2023-02-01T11:02:00;14.73;;;3.55;;
49440;SDS011;35317;51.978;6.296;2023-02-01T11:07:17;21.77;;;3.88;;
49440;SDS011;35317;51.978;6.296;2023-02-01T11:12:34;26.02;;;3.95;;
49440;SDS011;35317;51.978;6.296;2023-02-01T11:17:40;31.55;;;3.75;;
49440;SDS011;35317;51.978;6.296;2023-02-01T11:22:48;28.17;;;3.83;;
49440;SDS011;35317;51.978;6.296;2023-02-01T11:27:54;18.90;;;3.50;;
49440;SDS011;35317;51.978;6.296;2023-02-01T11:32:56;27.58;;;4.70;;
49440;SDS011;35317;51.978;6.296;2023-02-01T11:37:58;27.42;;;5.13;;
49440;SDS011;35317;51.978;6.296;2023-02-01T11:43:15;26.83;;;3.85;;
49440;SDS011;35317;51.978;6.296;2023-02-01T11:48:30;27.92;;;3.75;;
49440;SDS011;35317;51.978;6.296;2023-02-01T11:58:41;31.52;;;3.95;;
49440;SDS011;35317;51.978;6.296;2023-02-01T12:20:16;16.17;;;3.25;;
49440;SDS011;35317;51.978;6.296;2023-02-01T12:37:29;19.52;;;3.58;;
49440;SDS011;35317;51.978;6.296;2023-02-01T12:42:57;31.77;;;4.97;;
49440;SDS011;35317;51.978;6.296;2023-02-01T12:48:13;18.48;;;3.10;;
49440;SDS011;35317;51.978;6.296;2023-02-01T12:58:55;25.23;;;3.15;;
49440;SDS011;35317;51.978;6.296;2023-02-01T13:04:15;25.55;;;3.80;;
49440;SDS011;35317;51.978;6.296;2023-02-01T13:09:43;26.20;;;3.92;;
49440;SDS011;35317;51.978;6.296;2023-02-01T13:20:24;17.02;;;2.45;;
49440;SDS011;35317;51.978;6.296;2023-02-01T13:37:09;26.38;;;3.38;;
49440;SDS011;35317;51.978;6.296;2023-02-01T13:42:05;21.55;;;3.55;;
49440;SDS011;35317;51.978;6.296;2023-02-01T13:52:42;9.77;;;2.15;;
49440;SDS011;35317;51.978;6.296;2023-02-01T13:57:45;13.57;;;2.42;;
49440;SDS011;35317;51.978;6.296;2023-02-01T14:02:50;22.17;;;2.97;;
49440;SDS011;35317;51.978;6.296;2023-02-01T14:13:12;21.95;;;3.25;;
49440;SDS011;35317;51.978;6.296;2023-02-01T14:23:42;22.42;;;3.40;;
49440;SDS011;35317;51.978;6.296;2023-02-01T14:28:49;22.00;;;4.15;;
49440;SDS011;35317;51.978;6.296;2023-02-01T14:33:58;17.00;;;2.95;;
49440;SDS011;35317;51.978;6.296;2023-02-01T14:39:03;18.30;;;3.25;;
49440;SDS011;35317;51.978;6.296;2023-02-01T14:49:05;13.50;;;2.67;;
49440;SDS011;35317;51.978;6.296;2023-02-01T14:54:08;22.75;;;3.40;;
49440;SDS011;35317;51.978;6.296;2023-02-01T14:59:14;18.98;;;3.10;;
49440;SDS011;35317;51.978;6.296;2023-02-01T15:04:17;19.93;;;3.43;;
49440;SDS011;35317;51.978;6.296;2023-02-01T15:09:24;13.93;;;2.92;;
49440;SDS011;35317;51.978;6.296;2023-02-01T15:14:31;32.30;;;3.35;;
49440;SDS011;35317;51.978;6.296;2023-02-01T15:19:35;28.63;;;3.90;;
49440;SDS011;35317;51.978;6.296;2023-02-01T15:24:36;19.05;;;2.78;;
49440;SDS011;35317;51.978;6.296;2023-02-01T15:29:36;22.50;;;4.10;;
49440;SDS011;35317;51.978;6.296;2023-02-01T15:34:44;18.73;;;3.50;;
49440;SDS011;35317;51.978;6.296;2023-02-01T15:45:17;13.45;;;2.45;;
49440;SDS011;35317;51.978;6.296;2023-02-01T15:50:20;13.95;;;2.22;;
49440;SDS011;35317;51.978;6.296;2023-02-01T16:00:42;5.93;;;1.20;;
49440;SDS011;35317;51.978;6.296;2023-02-01T16:05:46;9.95;;;1.20;;
49440;SDS011;35317;51.978;6.296;2023-02-01T16:11:13;8.75;;;1.73;;
49440;SDS011;35317;51.978;6.296;2023-02-01T16:16:31;7.97;;;1.13;;
49440;SDS011;35317;51.978;6.296;2023-02-01T16:21:31;8.48;;;1.33;;
49440;SDS011;35317;51.978;6.296;2023-02-01T16:26:33;9.52;;;1.17;;
49440;SDS011;35317;51.978;6.296;2023-02-01T16:31:36;8.77;;;1.15;;
49440;SDS011;35317;51.978;6.296;2023-02-01T16:36:38;9.13;;;1.50;;
49440;SDS011;35317;51.978;6.296;2023-02-01T16:41:39;9.10;;;1.40;;
49440;SDS011;35317;51.978;6.296;2023-02-01T16:46:41;13.88;;;1.95;;
49440;SDS011;35317;51.978;6.296;2023-02-01T16:51:45;9.82;;;2.08;;
49440;SDS011;35317;51.978;6.296;2023-02-01T16:56:49;10.52;;;1.75;;
49440;SDS011;35317;51.978;6.296;2023-02-01T17:01:50;18.05;;;2.95;;
49440;SDS011;35317;51.978;6.296;2023-02-01T17:06:50;22.92;;;4.20;;
49440;SDS011;35317;51.978;6.296;2023-02-01T17:11:51;17.98;;;4.30;;
49440;SDS011;35317;51.978;6.296;2023-02-01T17:16:52;29.95;;;4.68;;
49440;SDS011;35317;51.978;6.296;2023-02-01T17:21:54;16.48;;;2.22;;
49440;SDS011;35317;51.978;6.296;2023-02-01T17:26:58;9.15;;;2.05;;
49440;SDS011;35317;51.978;6.296;2023-02-01T17:31:59;8.05;;;2.08;;
49440;SDS011;35317;51.978;6.296;2023-02-01T17:37:00;9.32;;;1.38;;
49440;SDS011;35317;51.978;6.296;2023-02-01T17:42:01;6.53;;;1.98;;
49440;SDS011;35317;51.978;6.296;2023-02-01T17:47:04;13.85;;;3.33;;
49440;SDS011;35317;51.978;6.296;2023-02-01T17:52:05;10.80;;;2.80;;
49440;SDS011;35317;51.978;6.296;2023-02-01T17:57:12;21.40;;;2.90;;
49440;SDS011;35317;51.978;6.296;2023-02-01T18:02:16;15.05;;;2.42;;
49440;SDS011;35317;51.978;6.296;2023-02-01T18:07:20;21.15;;;3.70;;
49440;SDS011;35317;51.978;6.296;2023-02-01T18:12:21;16.83;;;3.70;;
49440;SDS011;35317;51.978;6.296;2023-02-01T18:17:24;21.63;;;3.80;;
49440;SDS011;35317;51.978;6.296;2023-02-01T18:22:25;22.95;;;3.60;;
49440;SDS011;35317;51.978;6.296;2023-02-01T18:27:26;18.48;;;3.53;;
49440;SDS011;35317;51.978;6.296;2023-02-01T18:32:28;22.98;;;3.50;;
49440;SDS011;35317;51.978;6.296;2023-02-01T18:37:29;22.45;;;3.92;;
49440;SDS011;35317;51.978;6.296;2023-02-01T18:42:30;18.80;;;3.63;;
49440;SDS011;35317;51.978;6.296;2023-02-01T18:47:30;8.18;;;1.70;;
49440;SDS011;35317;51.978;6.296;2023-02-01T18:52:31;8.07;;;1.42;;
49440;SDS011;35317;51.978;6.296;2023-02-01T18:57:32;5.75;;;0.98;;
49440;SDS011;35317;51.978;6.296;2023-02-01T19:02:33;5.25;;;1.15;;
49440;SDS011;35317;51.978;6.296;2023-02-01T19:07:34;10.77;;;1.60;;
49440;SDS011;35317;51.978;6.296;2023-02-01T19:12:35;8.45;;;1.73;;
49440;SDS011;35317;51.978;6.296;2023-02-01T19:17:38;9.07;;;1.60;;
49440;SDS011;35317;51.978;6.296;2023-02-01T19:22:39;12.65;;;1.25;;
49440;SDS011;35317;51.978;6.296;2023-02-01T19:27:41;11.13;;;1.65;;
49440;SDS011;35317;51.978;6.296;2023-02-01T19:32:41;10.88;;;1.98;;
49440;SDS011;35317;51.978;6.296;2023-02-01T19:37:42;11.80;;;2.10;;
49440;SDS011;35317;51.978;6.296;2023-02-01T19:42:43;9.65;;;1.80;;
49440;SDS011;35317;51.978;6.296;2023-02-01T19:47:45;10.68;;;1.83;;
49440;SDS011;35317;51.978;6.296;2023-02-01T19:52:46;9.23;;;1.85;;
49440;SDS011;35317;51.978;6.296;2023-02-01T19:57:48;5.55;;;1.38;;
49440;SDS011;35317;51.978;6.296;2023-02-01T20:02:48;7.78;;;1.77;;
49440;SDS011;35317;51.978;6.296;2023-02-01T20:07:49;11.13;;;2.13;;
49440;SDS011;35317;51.978;6.296;2023-02-01T20:12:50;13.63;;;2.30;;
49440;SDS011;35317;51.978;6.296;2023-02-01T20:17:51;10.30;;;1.90;;
49440;SDS011;35317;51.978;6.296;2023-02-01T20:22:52;9.13;;;1.40;;
49440;SDS011;35317;51.978;6.296;2023-02-01T20:27:57;6.28;;;1.13;;
49440;SDS011;35317;51.978;6.296;2023-02-01T20:32:58;4.93;;;1.02;;
49440;SDS011;35317;51.978;6.296;2023-02-01T20:37:59;6.18;;;1.33;;
49440;SDS011;35317;51.978;6.296;2023-02-01T20:43:00;8.68;;;1.30;;
49440;SDS011;35317;51.978;6.296;2023-02-01T20:48:01;13.85;;;3.17;;
49440;SDS011;35317;51.978;6.296;2023-02-01T20:53:02;9.15;;;1.73;;
49440;SDS011;35317;51.978;6.296;2023-02-01T20:58:04;8.15;;;1.02;;
49440;SDS011;35317;51.978;6.296;2023-02-01T21:03:04;16.27;;;1.90;;
49440;SDS011;35317;51.978;6.296;2023-02-01T21:08:06;12.55;;;1.73;;
49440;SDS011;35317;51.978;6.296;2023-02-01T21:18:10;13.13;;;1.67;;
49440;SDS011;35317;51.978;6.296;2023-02-01T21:23:13;9.13;;;1.50;;
49440;SDS011;35317;51.978;6.296;2023-02-01T21:28:14;12.45;;;2.20;;
49440;SDS011;35317;51.978;6.296;2023-02-01T21:33:15;4.78;;;1.02;;
49440;SDS011;35317;51.978;6.296;2023-02-01T21:38:16;12.48;;;1.45;;
49440;SDS011;35317;51.978;6.296;2023-02-01T21:43:16;7.47;;;1.08;;
49440;SDS011;35317;51.978;6.296;2023-02-01T21:48:17;11.25;;;2.35;;
49440;SDS011;35317;51.978;6.296;2023-02-01T21:53:18;7.15;;;1.10;;
49440;SDS011;35317;51.978;6.296;2023-02-01T21:58:19;10.05;;;1.88;;
49440;SDS011;35317;51.978;6.296;2023-02-01T22:03:19;11.45;;;1.92;;
49440;SDS011;35317;51.978;6.296;2023-02-01T22:08:20;8.75;;;1.45;;
49440;SDS011;35317;51.978;6.296;2023-02-01T22:13:21;18.05;;;1.70;;
49440;SDS011;35317;51.978;6.296;2023-02-01T22:18:21;10.00;;;1.50;;
49440;SDS011;35317;51.978;6.296;2023-02-01T22:23:22;6.95;;;1.55;;
49440;SDS011;35317;51.978;6.296;2023-02-01T22:28:26;8.98;;;1.27;;
49440;SDS011;35317;51.978;6.296;2023-02-01T22:33:28;13.93;;;1.73;;
49440;SDS011;35317;51.978;6.296;2023-02-01T22:38:29;15.25;;;1.98;;
49440;SDS011;35317;51.978;6.296;2023-02-01T22:43:34;13.45;;;1.73;;
49440;SDS011;35317;51.978;6.296;2023-02-01T22:48:36;16.88;;;2.35;;
49440;SDS011;35317;51.978;6.296;2023-02-01T22:53:38;13.82;;;2.67;;
49440;SDS011;35317;51.978;6.296;2023-02-01T22:58:39;15.50;;;2.03;;
49440;SDS011;35317;51.978;6.296;2023-02-01T23:03:39;11.15;;;2.53;;
49440;SDS011;35317;51.978;6.296;2023-02-01T23:08:40;18.67;;;3.33;;
49440;SDS011;35317;51.978;6.296;2023-02-01T23:13:41;21.88;;;4.07;;
49440;SDS011;35317;51.978;6.296;2023-02-01T23:18:42;33.75;;;6.20;;
49440;SDS011;35317;51.978;6.296;2023-02-01T23:23:46;31.35;;;5.57;;
49440;SDS011;35317;51.978;6.296;2023-02-01T23:28:53;25.90;;;7.13;;
49440;SDS011;35317;51.978;6.296;2023-02-01T23:33:55;29.33;;;8.25;;
49440;SDS011;35317;51.978;6.296;2023-02-01T23:38:58;34.05;;;6.05;;
49440;SDS011;35317;51.978;6.296;2023-02-01T23:43:59;23.67;;;5.43;;
49440;SDS011;35317;51.978;6.296;2023-02-01T23:49:00;23.35;;;4.78;;
49440;SDS011;35317;51.978;6.296;2023-02-01T23:54:05;21.73;;;5.32;;
49440;SDS011;35317;51.978;6.296;2023-02-01T23:59:15;19.73;;;5.03;;
